createdAt,value
2022-12-04T00:01:23.090Z,1.00
2022-12-04T00:03:56.737Z,1.00
2022-12-04T00:06:23.775Z,1.10
2022-12-04T00:08:51.308Z,1.00
2022-12-04T00:11:20.462Z,1.10
2022-12-04T00:13:48.017Z,1.10
2022-12-04T00:16:20.918Z,1.00
2022-12-04T00:18:47.710Z,1.00
2022-12-04T00:21:15.847Z,1.10
2022-12-04T00:23:43.466Z,1.00
2022-12-04T00:26:15.897Z,1.10
2022-12-04T00:28:43.482Z,1.10
2022-12-04T00:31:15.743Z,1.10
2022-12-04T00:33:42.690Z,1.10
2022-12-04T00:36:12.158Z,1.10
2022-12-04T00:38:40.043Z,1.00
2022-12-04T00:41:15.533Z,1.00
2022-12-04T00:43:42.258Z,1.00
2022-12-04T00:46:09.912Z,1.00
2022-12-04T00:48:36.894Z,1.00
2022-12-04T00:51:10.681Z,1.00
2022-12-04T00:53:37.693Z,1.00
2022-12-04T00:56:11.182Z,1.10
2022-12-04T00:58:37.936Z,1.10
2022-12-04T01:01:11.047Z,1.00
2022-12-04T01:03:38.279Z,1.00
2022-12-04T01:06:06.443Z,1.10
2022-12-04T01:08:33.614Z,1.10
2022-12-04T01:11:04.574Z,1.10
2022-12-04T01:13:31.185Z,1.10
2022-12-04T01:15:57.907Z,1.00
2022-12-04T01:18:24.656Z,1.00
2022-12-04T01:20:52.679Z,1.00
2022-12-04T01:23:20.002Z,1.10
2022-12-04T01:25:54.406Z,1.10
2022-12-04T01:28:21.721Z,1.10
2022-12-04T01:31:03.677Z,1.10
2022-12-04T01:33:31.524Z,1.10
2022-12-04T01:35:59.641Z,1.10
2022-12-04T01:38:26.850Z,1.10
2022-12-04T01:40:54.005Z,1.10
2022-12-04T01:43:21.098Z,1.10
2022-12-04T01:45:50.676Z,1.10
2022-12-04T01:48:32.017Z,1.10
2022-12-04T01:51:18.540Z,1.10
2022-12-04T01:53:54.353Z,1.10
2022-12-04T01:56:24.983Z,1.20
2022-12-04T01:58:54.941Z,1.20
2022-12-04T02:01:21.706Z,1.20
2022-12-04T02:03:49.090Z,1.20
2022-12-04T02:06:15.823Z,1.20
2022-12-04T02:08:42.617Z,1.20
2022-12-04T02:11:09.369Z,1.30
2022-12-04T02:14:02.015Z,1.20
2022-12-04T02:16:43.411Z,1.20
2022-12-04T02:19:47.565Z,1.20
2022-12-04T02:22:38.298Z,1.20
2022-12-04T02:25:18.333Z,1.10
2022-12-04T02:28:09.388Z,1.20
2022-12-04T02:30:40.525Z,1.20
2022-12-04T02:33:26.194Z,1.20
2022-12-04T02:36:10.068Z,1.20
2022-12-04T02:38:44.362Z,1.20
2022-12-04T02:41:23.022Z,1.20
2022-12-04T02:43:51.634Z,1.20
2022-12-04T02:46:26.020Z,1.20
2022-12-04T02:48:57.070Z,1.30
2022-12-04T02:51:26.328Z,1.20
2022-12-04T02:54:02.601Z,1.20
2022-12-04T02:56:34.434Z,1.30
2022-12-04T02:59:08.310Z,1.20
2022-12-04T03:01:38.664Z,1.20
2022-12-04T03:04:16.635Z,1.20
2022-12-04T03:06:46.342Z,1.20
2022-12-04T03:09:35.219Z,1.20
2022-12-04T03:12:15.117Z,1.20
2022-12-04T03:14:55.171Z,1.20
2022-12-04T03:17:33.216Z,1.20
2022-12-04T03:20:05.398Z,1.20
2022-12-04T03:22:35.975Z,1.20
2022-12-04T03:25:04.586Z,1.20
2022-12-04T03:28:16.333Z,1.20
2022-12-04T03:30:52.003Z,1.20
2022-12-04T03:33:23.818Z,1.20
2022-12-04T03:36:04.905Z,1.20
2022-12-04T03:38:39.196Z,1.20
2022-12-04T03:41:14.283Z,1.20
2022-12-04T03:44:11.951Z,1.30
2022-12-04T03:46:41.500Z,1.30
2022-12-04T03:49:35.664Z,1.30
2022-12-04T03:52:29.755Z,1.20
2022-12-04T03:55:13.535Z,1.20
2022-12-04T03:57:43.825Z,1.20
2022-12-04T04:00:12.386Z,1.20
2022-12-04T04:02:54.975Z,1.30
2022-12-04T04:05:23.874Z,1.20
2022-12-04T04:07:55.835Z,1.30
2022-12-04T04:10:26.471Z,1.20
2022-12-04T04:13:18.593Z,1.20
2022-12-04T04:16:09.421Z,1.20
2022-12-04T04:18:55.449Z,1.20
2022-12-04T04:21:46.664Z,1.20
2022-12-04T04:24:27.843Z,1.20
2022-12-04T04:26:56.774Z,1.10
2022-12-04T04:29:23.466Z,1.10
2022-12-04T04:32:09.611Z,1.10
2022-12-04T04:35:12.950Z,1.10
2022-12-04T04:37:45.578Z,1.10
2022-12-04T04:40:28.929Z,1.20
2022-12-04T04:43:10.146Z,1.10
2022-12-04T04:45:45.637Z,1.10
2022-12-04T04:48:17.222Z,1.10
2022-12-04T04:50:45.535Z,1.10
2022-12-04T04:53:20.326Z,1.10
2022-12-04T04:55:47.935Z,1.20
2022-12-04T04:58:19.599Z,1.10
2022-12-04T05:00:55.206Z,1.20
2022-12-04T05:03:21.942Z,1.10
2022-12-04T05:05:48.764Z,1.20
2022-12-04T05:08:15.489Z,1.20
2022-12-04T05:10:42.238Z,1.20
2022-12-04T05:13:11.658Z,1.20
2022-12-04T05:15:38.506Z,1.20
2022-12-04T05:18:05.435Z,1.20
2022-12-04T05:20:32.590Z,1.20
2022-12-04T05:22:59.565Z,1.20
2022-12-04T05:25:26.393Z,1.20
2022-12-04T05:27:53.077Z,1.30
2022-12-04T05:30:19.836Z,1.30
2022-12-04T05:32:46.560Z,1.20
2022-12-04T05:35:13.228Z,1.30
2022-12-04T05:37:40.607Z,1.20
2022-12-04T05:40:08.708Z,1.20
2022-12-04T05:42:35.451Z,1.10
2022-12-04T05:45:02.166Z,1.10
2022-12-04T05:47:28.904Z,1.10
2022-12-04T05:49:55.939Z,1.10
2022-12-04T05:52:22.777Z,1.10
2022-12-04T05:54:49.453Z,1.10
2022-12-04T05:57:16.098Z,1.20
2022-12-04T05:59:42.737Z,1.20
2022-12-04T06:02:09.429Z,1.20
2022-12-04T06:04:38.399Z,1.10
2022-12-04T06:07:05.150Z,1.10
2022-12-04T06:09:31.853Z,1.10
2022-12-04T06:11:58.878Z,1.10
2022-12-04T06:14:25.956Z,1.10
2022-12-04T06:16:52.664Z,1.10
2022-12-04T06:19:21.290Z,1.10
2022-12-04T06:21:50.215Z,1.10
2022-12-04T06:24:22.200Z,1.10
2022-12-04T06:27:18.917Z,1.10
2022-12-04T06:29:36.379Z,1.20
2022-12-04T06:32:03.600Z,1.20
2022-12-04T06:34:30.328Z,1.20
2022-12-04T06:36:56.997Z,1.10
2022-12-04T06:39:23.890Z,1.10
2022-12-04T06:41:52.386Z,1.20
2022-12-04T06:44:19.155Z,1.10
2022-12-04T06:46:47.313Z,1.10
2022-12-04T06:49:14.772Z,1.20
2022-12-04T06:51:41.822Z,1.10
2022-12-04T06:54:09.611Z,1.10
2022-12-04T06:56:36.454Z,1.00
2022-12-04T06:59:04.782Z,1.10
2022-12-04T07:01:33.627Z,1.10
2022-12-04T07:04:03.719Z,1.10
2022-12-04T07:06:33.021Z,1.10
2022-12-04T07:09:03.624Z,1.10
2022-12-04T07:11:30.717Z,1.10
2022-12-04T07:13:57.680Z,1.10
2022-12-04T07:16:26.295Z,1.10
2022-12-04T07:18:53.932Z,1.10
2022-12-04T07:21:25.955Z,1.10
2022-12-04T07:23:54.989Z,1.10
2022-12-04T07:26:22.453Z,1.10
2022-12-04T07:28:49.167Z,1.10
2022-12-04T07:31:19.062Z,1.10
2022-12-04T07:33:46.090Z,1.10
2022-12-04T07:36:16.222Z,1.20
2022-12-04T07:38:43.476Z,1.10
2022-12-04T07:41:12.023Z,1.10
2022-12-04T07:43:39.255Z,1.10
2022-12-04T07:46:12.728Z,1.10
2022-12-04T07:48:39.994Z,1.10
2022-12-04T07:51:10.170Z,1.20
2022-12-04T07:53:37.733Z,1.20
2022-12-04T07:56:05.725Z,1.20
2022-12-04T07:58:33.229Z,1.20
2022-12-04T08:01:14.236Z,1.20
2022-12-04T08:03:47.242Z,1.20
2022-12-04T08:06:29.050Z,1.10
2022-12-04T08:08:57.328Z,1.10
2022-12-04T08:11:26.401Z,1.10
2022-12-04T08:14:01.222Z,1.10
2022-12-04T08:16:29.607Z,1.20
2022-12-04T08:18:57.410Z,1.30
2022-12-04T08:21:27.712Z,1.20
2022-12-04T08:23:56.611Z,1.20
2022-12-04T08:26:25.096Z,1.20
2022-12-04T08:28:56.260Z,1.20
2022-12-04T08:31:28.832Z,1.30
2022-12-04T08:33:57.035Z,1.30
2022-12-04T08:36:24.079Z,1.30
2022-12-04T08:38:51.117Z,1.30
2022-12-04T08:41:21.572Z,1.20
2022-12-04T08:43:48.510Z,1.30
2022-12-04T08:46:17.379Z,1.30
2022-12-04T08:48:45.161Z,1.40
2022-12-04T08:51:26.921Z,1.30
2022-12-04T08:54:02.946Z,1.30
2022-12-04T08:56:31.002Z,1.30
2022-12-04T08:58:59.206Z,1.30
2022-12-04T09:01:27.256Z,1.30
2022-12-04T09:03:54.091Z,1.30
2022-12-04T09:06:21.346Z,1.30
2022-12-04T09:08:51.232Z,1.30
2022-12-04T09:11:20.676Z,1.30
2022-12-04T09:13:47.939Z,1.40
2022-12-04T09:16:18.785Z,1.30
2022-12-04T09:18:45.599Z,1.30
2022-12-04T09:21:14.780Z,1.30
2022-12-04T09:23:41.988Z,1.30
2022-12-04T09:26:19.795Z,1.30
2022-12-04T09:28:47.880Z,1.30
2022-12-04T09:31:14.973Z,1.30
2022-12-04T09:33:41.742Z,1.30
2022-12-04T09:36:08.713Z,1.30
2022-12-04T09:38:35.344Z,1.30
2022-12-04T09:41:24.564Z,1.30
2022-12-04T09:44:03.341Z,1.30
2022-12-04T09:46:37.576Z,1.20
2022-12-04T09:49:12.501Z,1.30
2022-12-04T09:51:41.938Z,1.30
2022-12-04T09:54:17.222Z,1.30
2022-12-04T09:56:53.600Z,1.20
2022-12-04T09:59:31.774Z,1.30
2022-12-04T10:02:33.954Z,1.30
2022-12-04T10:05:01.036Z,1.30
2022-12-04T10:07:43.591Z,1.30
2022-12-04T10:10:28.375Z,1.30
2022-12-04T10:13:05.670Z,1.30
2022-12-04T10:15:58.025Z,1.30
2022-12-04T10:18:53.736Z,1.30
2022-12-04T10:21:31.100Z,1.40
2022-12-04T10:24:11.613Z,1.40
2022-12-04T10:26:47.183Z,1.40
2022-12-04T10:29:22.136Z,1.40
2022-12-04T10:31:50.910Z,1.50
2022-12-04T10:34:29.875Z,1.50
2022-12-04T10:37:08.929Z,1.50
2022-12-04T10:39:58.652Z,1.50
2022-12-04T10:42:36.213Z,1.50
2022-12-04T10:45:05.042Z,1.40
2022-12-04T10:47:33.118Z,1.50
2022-12-04T10:50:03.272Z,1.50
2022-12-04T10:52:29.953Z,1.50
2022-12-04T10:55:04.785Z,1.50
2022-12-04T10:57:37.007Z,1.50
2022-12-04T11:00:24.201Z,1.50
2022-12-04T11:02:54.084Z,1.60
2022-12-04T11:05:43.720Z,1.50
2022-12-04T11:08:22.362Z,1.50
2022-12-04T11:11:00.489Z,1.60
2022-12-04T11:13:27.539Z,1.60
2022-12-04T11:15:56.424Z,1.60
2022-12-04T11:18:31.998Z,1.60
2022-12-04T11:21:04.432Z,1.60
2022-12-04T11:23:42.233Z,1.60
2022-12-04T11:26:10.506Z,1.60
2022-12-04T11:28:42.455Z,1.60
2022-12-04T11:31:16.412Z,1.70
2022-12-04T11:33:46.369Z,1.60
2022-12-04T11:36:32.571Z,1.60
2022-12-04T11:39:29.753Z,1.60
2022-12-04T11:42:16.852Z,1.70
2022-12-04T11:44:55.593Z,1.70
2022-12-04T11:47:25.303Z,1.80
2022-12-04T11:50:13.121Z,1.80
2022-12-04T11:53:10.330Z,1.80
2022-12-04T11:55:40.031Z,1.70
2022-12-04T11:58:37.047Z,1.80
2022-12-04T12:01:26.183Z,1.80
2022-12-04T12:04:11.665Z,1.90
2022-12-04T12:06:50.966Z,1.80
2022-12-04T12:10:02.517Z,1.70
2022-12-04T12:12:50.643Z,1.80
2022-12-04T12:15:24.338Z,1.80
2022-12-04T12:18:21.027Z,1.80
2022-12-04T12:21:05.280Z,1.90
2022-12-04T12:23:55.975Z,1.80
2022-12-04T12:26:27.952Z,1.90
2022-12-04T12:29:28.569Z,1.90
2022-12-04T12:31:58.308Z,1.90
2022-12-04T12:34:35.582Z,1.90
2022-12-04T12:37:18.098Z,1.90
2022-12-04T12:40:04.765Z,1.90
2022-12-04T12:42:46.725Z,1.90
2022-12-04T12:45:30.038Z,2.00
2022-12-04T12:48:02.539Z,2.00
2022-12-04T12:50:37.306Z,2.00
2022-12-04T12:53:32.460Z,1.90
2022-12-04T12:56:02.395Z,1.90
2022-12-04T12:58:53.935Z,1.90
2022-12-04T13:01:44.856Z,2.00
2022-12-04T13:04:49.644Z,2.00
2022-12-04T13:07:28.765Z,2.00
2022-12-04T13:10:24.158Z,2.00
2022-12-04T13:13:03.021Z,2.00
2022-12-04T13:15:43.050Z,2.00
2022-12-04T13:18:30.580Z,2.00
2022-12-04T13:21:01.674Z,2.10
2022-12-04T13:23:49.883Z,2.10
2022-12-04T13:26:39.420Z,2.00
2022-12-04T13:29:33.914Z,2.10
2022-12-04T13:32:15.182Z,2.10
2022-12-04T13:35:02.721Z,2.20
2022-12-04T13:38:01.315Z,2.00
2022-12-04T13:40:43.040Z,2.00
2022-12-04T13:43:35.437Z,2.00
2022-12-04T13:46:34.280Z,2.00
2022-12-04T13:49:27.983Z,2.00
2022-12-04T13:51:56.395Z,2.00
2022-12-04T13:54:37.204Z,2.00
2022-12-04T13:57:16.805Z,2.00
2022-12-04T13:59:44.651Z,2.00
2022-12-04T14:02:35.641Z,2.10
2022-12-04T14:05:11.884Z,2.00
2022-12-04T14:07:42.411Z,2.00
2022-12-04T14:10:15.123Z,2.00
2022-12-04T14:12:49.668Z,1.90
2022-12-04T14:15:24.353Z,1.80
2022-12-04T14:18:13.247Z,1.70
2022-12-04T14:20:42.434Z,1.70
2022-12-04T14:23:22.551Z,1.70
2022-12-04T14:25:51.230Z,1.70
2022-12-04T14:28:26.019Z,1.80
2022-12-04T14:31:20.410Z,1.80
2022-12-04T14:33:56.164Z,1.80
2022-12-04T14:36:33.925Z,1.90
2022-12-04T14:39:24.315Z,1.90
2022-12-04T14:41:52.171Z,1.90
2022-12-04T14:44:29.855Z,1.90
2022-12-04T14:47:14.872Z,1.90
2022-12-04T14:49:44.730Z,2.00
2022-12-04T14:52:37.998Z,2.00
2022-12-04T14:55:20.574Z,2.00
2022-12-04T14:58:00.390Z,2.00
2022-12-04T15:00:28.250Z,2.00
2022-12-04T15:03:00.866Z,2.00
2022-12-04T15:05:29.696Z,1.90
2022-12-04T15:08:02.131Z,1.90
2022-12-04T15:10:49.903Z,2.00
2022-12-04T15:13:32.263Z,1.90
2022-12-04T15:16:08.230Z,1.90
2022-12-04T15:18:39.388Z,2.00
2022-12-04T15:21:07.512Z,2.00
2022-12-04T15:23:34.198Z,1.90
2022-12-04T15:26:05.665Z,1.90
2022-12-04T15:28:40.462Z,1.90
2022-12-04T15:31:22.646Z,1.80
2022-12-04T15:33:53.137Z,1.90
2022-12-04T15:36:43.924Z,1.90
2022-12-04T15:39:32.651Z,1.90
2022-12-04T15:42:27.501Z,1.90
2022-12-04T15:45:21.724Z,1.90
2022-12-04T15:47:48.385Z,2.00
2022-12-04T15:50:18.048Z,1.90
2022-12-04T15:53:13.326Z,1.90
2022-12-04T15:55:51.165Z,2.00
2022-12-04T15:58:30.214Z,2.00
2022-12-04T16:01:09.645Z,2.00
2022-12-04T16:03:42.271Z,1.90
2022-12-04T16:06:18.139Z,2.00
2022-12-04T16:08:54.064Z,1.90
2022-12-04T16:11:21.326Z,1.90
2022-12-04T16:13:50.195Z,2.00
2022-12-04T16:16:22.411Z,2.00
2022-12-04T16:18:49.498Z,1.90
2022-12-04T16:21:18.665Z,1.90
2022-12-04T16:23:45.588Z,2.00
2022-12-04T16:26:14.148Z,2.00
2022-12-04T16:28:40.880Z,2.00
2022-12-04T16:31:09.122Z,2.00
2022-12-04T16:33:35.859Z,2.00
2022-12-04T16:36:02.498Z,2.10
2022-12-04T16:38:29.419Z,2.10
2022-12-04T16:40:56.238Z,2.00
2022-12-04T16:43:22.973Z,2.00
2022-12-04T16:45:53.108Z,2.00
2022-12-04T16:48:20.121Z,2.10
2022-12-04T16:50:47.604Z,2.10
2022-12-04T16:53:19.409Z,2.10
2022-12-04T16:55:51.558Z,2.10
2022-12-04T16:58:19.504Z,2.10
2022-12-04T17:00:52.011Z,2.10
2022-12-04T17:03:24.309Z,2.10
2022-12-04T17:05:50.954Z,2.10
2022-12-04T17:08:17.686Z,2.10
2022-12-04T17:10:44.828Z,2.10
2022-12-04T17:13:11.602Z,2.10
2022-12-04T17:15:38.316Z,2.20
2022-12-04T17:18:11.212Z,2.20
2022-12-04T17:20:43.900Z,2.30
2022-12-04T17:23:11.991Z,2.40
2022-12-04T17:25:39.253Z,2.40
2022-12-04T17:28:06.038Z,2.40
2022-12-04T17:30:35.973Z,2.40
2022-12-04T17:33:04.231Z,2.40
2022-12-04T17:35:31.033Z,2.50
2022-12-04T17:38:03.808Z,2.40
2022-12-04T17:40:32.478Z,2.40
2022-12-04T17:42:59.434Z,2.40
2022-12-04T17:45:26.230Z,2.40
2022-12-04T17:47:52.892Z,2.50
2022-12-04T17:50:19.686Z,2.40
2022-12-04T17:52:46.446Z,2.40
2022-12-04T17:55:13.229Z,2.40
2022-12-04T17:57:39.853Z,2.50
2022-12-04T18:00:07.325Z,2.50
2022-12-04T18:02:41.410Z,2.50
2022-12-04T18:05:09.423Z,2.50
2022-12-04T18:07:36.150Z,2.50
2022-12-04T18:10:03.236Z,2.50
2022-12-04T18:12:29.970Z,2.50
2022-12-04T18:14:56.656Z,2.50
2022-12-04T18:17:23.470Z,2.60
2022-12-04T18:19:50.139Z,2.60
2022-12-04T18:22:16.778Z,2.60
2022-12-04T18:24:43.587Z,2.60
2022-12-04T18:27:10.426Z,2.60
2022-12-04T18:29:37.895Z,2.60
2022-12-04T18:32:05.206Z,2.60
2022-12-04T18:34:32.025Z,2.60
2022-12-04T18:36:58.715Z,2.60
2022-12-04T18:39:26.460Z,2.50
2022-12-04T18:41:57.164Z,2.60
2022-12-04T18:44:24.888Z,2.60
2022-12-04T18:46:51.754Z,2.50
2022-12-04T18:49:18.468Z,2.50
2022-12-04T18:51:49.624Z,2.50
2022-12-04T18:54:22.825Z,2.50
2022-12-04T18:56:50.941Z,2.50
2022-12-04T18:59:28.881Z,2.60
2022-12-04T19:01:57.324Z,2.60
2022-12-04T19:04:25.673Z,2.60
2022-12-04T19:06:55.165Z,2.60
2022-12-04T19:09:54.421Z,2.60
2022-12-04T19:12:14.800Z,2.60
2022-12-04T19:14:41.461Z,2.60
2022-12-04T19:17:08.222Z,2.70
2022-12-04T19:19:35.137Z,2.70
2022-12-04T19:22:02.450Z,2.70
2022-12-04T19:24:29.167Z,2.70
2022-12-04T19:26:55.869Z,2.70
2022-12-04T19:29:22.791Z,2.60
2022-12-04T19:31:51.519Z,2.60
2022-12-04T19:34:21.405Z,2.50
2022-12-04T19:36:48.081Z,2.60
2022-12-04T19:39:14.774Z,2.60
2022-12-04T19:41:41.507Z,2.60
2022-12-04T19:44:46.260Z,2.60
2022-12-04T19:46:56.210Z,2.60
2022-12-04T19:49:22.906Z,2.60
2022-12-04T19:51:49.750Z,2.60
2022-12-04T19:54:16.711Z,2.60
2022-12-04T19:56:46.011Z,2.60
2022-12-04T19:59:13.044Z,2.60
2022-12-04T20:01:39.723Z,2.60
2022-12-04T20:04:08.844Z,2.60
2022-12-04T20:06:39.521Z,2.60
2022-12-04T20:09:09.442Z,2.60
2022-12-04T20:11:36.570Z,2.60
2022-12-04T20:14:05.190Z,2.60
2022-12-04T20:16:33.518Z,2.60
2022-12-04T20:19:02.396Z,2.60
2022-12-04T20:21:30.843Z,2.70
2022-12-04T20:24:00.584Z,2.60
2022-12-04T20:26:30.492Z,2.70
2022-12-04T20:28:59.390Z,2.70
2022-12-04T20:31:28.971Z,2.70
2022-12-04T20:33:57.590Z,2.70
2022-12-04T20:36:27.659Z,2.70
2022-12-04T20:38:57.982Z,2.70
2022-12-04T20:41:26.642Z,2.70
2022-12-04T20:43:53.405Z,2.70
2022-12-04T20:46:28.742Z,2.70
2022-12-04T20:48:55.529Z,2.80
2022-12-04T20:51:25.400Z,2.70
2022-12-04T20:53:53.550Z,2.70
2022-12-04T20:56:21.904Z,2.70
2022-12-04T20:58:48.594Z,2.70
2022-12-04T21:01:17.722Z,2.60
2022-12-04T21:03:45.503Z,2.70
2022-12-04T21:06:19.738Z,2.70
2022-12-04T21:08:53.272Z,2.70
2022-12-04T21:11:29.667Z,2.70
2022-12-04T21:14:16.317Z,2.70
2022-12-04T21:16:43.497Z,2.60
2022-12-04T21:19:11.867Z,2.70
2022-12-04T21:21:38.889Z,2.70
2022-12-04T21:24:08.004Z,2.70
2022-12-04T21:26:35.313Z,2.70
2022-12-04T21:29:02.759Z,2.70
2022-12-04T21:31:30.409Z,2.70
2022-12-04T21:34:01.626Z,2.70
2022-12-04T21:36:29.050Z,2.70
2022-12-04T21:38:56.707Z,2.80
2022-12-04T21:41:42.089Z,2.80
2022-12-04T21:44:11.389Z,2.80
2022-12-04T21:46:38.544Z,2.80
2022-12-04T21:49:06.081Z,2.80
2022-12-04T21:51:56.157Z,2.80
2022-12-04T21:54:20.373Z,2.90
2022-12-04T21:56:47.221Z,2.90
2022-12-04T21:59:13.967Z,2.90
2022-12-04T22:01:41.534Z,2.80
2022-12-04T22:04:08.532Z,2.90
2022-12-04T22:06:36.322Z,2.90
2022-12-04T22:09:06.626Z,3.00
2022-12-04T22:11:33.597Z,2.90
2022-12-04T22:14:00.546Z,2.90
2022-12-04T22:16:30.562Z,2.90
2022-12-04T22:18:58.691Z,2.90
2022-12-04T22:21:25.895Z,2.90
2022-12-04T22:23:57.261Z,3.00
2022-12-04T22:26:24.147Z,3.00
2022-12-04T22:28:51.173Z,3.00
2022-12-04T22:31:21.482Z,2.90
2022-12-04T22:33:50.424Z,3.00
2022-12-04T22:36:20.402Z,3.00
2022-12-04T22:39:08.297Z,3.00
2022-12-04T22:41:34.623Z,3.00
2022-12-04T22:44:01.377Z,3.00
2022-12-04T22:46:28.084Z,3.00
2022-12-04T22:48:54.806Z,3.10
2022-12-04T22:51:22.399Z,3.10
2022-12-04T22:53:54.620Z,3.00
2022-12-04T22:56:29.902Z,3.00
2022-12-04T22:58:57.672Z,3.00
2022-12-04T23:01:28.510Z,3.00
2022-12-04T23:03:55.969Z,3.10
2022-12-04T23:06:25.086Z,3.00
2022-12-04T23:09:07.552Z,3.00
2022-12-04T23:11:35.801Z,3.10
2022-12-04T23:14:05.597Z,3.10
2022-12-04T23:16:34.764Z,3.10
2022-12-04T23:19:01.820Z,3.20
2022-12-04T23:21:28.885Z,3.10
2022-12-04T23:23:56.265Z,3.10
2022-12-04T23:26:27.495Z,3.10
2022-12-04T23:28:55.342Z,3.10
2022-12-04T23:31:22.512Z,3.10
2022-12-04T23:33:49.426Z,3.10
2022-12-04T23:36:16.692Z,3.20
2022-12-04T23:38:44.395Z,3.20
2022-12-04T23:41:16.322Z,3.30
2022-12-04T23:43:44.214Z,3.30
2022-12-04T23:46:12.981Z,3.30
2022-12-04T23:48:41.101Z,3.30
2022-12-04T23:51:09.285Z,3.30
2022-12-04T23:53:36.422Z,3.30
2022-12-04T23:56:08.044Z,3.30
2022-12-04T23:58:35.774Z,3.40
